createdAt,value
2023-08-06T00:00:42.304Z,64.70
2023-08-06T00:03:09.429Z,64.70
2023-08-06T00:05:38.351Z,64.60
2023-08-06T00:08:07.425Z,64.70
2023-08-06T00:10:35.426Z,64.60
2023-08-06T00:13:02.356Z,64.70
2023-08-06T00:15:29.372Z,64.80
2023-08-06T00:17:56.288Z,64.70
2023-08-06T00:20:23.368Z,64.60
2023-08-06T00:22:51.357Z,64.70
2023-08-06T00:25:21.371Z,64.70
2023-08-06T00:27:48.331Z,64.80
2023-08-06T00:30:19.930Z,64.80
2023-08-06T00:32:51.654Z,65.10
2023-08-06T00:35:19.751Z,66.00
2023-08-06T00:37:46.638Z,65.10
2023-08-06T00:40:15.661Z,65.40
2023-08-06T00:42:47.703Z,65.40
2023-08-06T00:45:16.713Z,65.50
2023-08-06T00:47:46.905Z,65.60
2023-08-06T00:50:14.405Z,65.40
2023-08-06T00:52:41.778Z,65.50
2023-08-06T00:55:13.304Z,65.50
2023-08-06T00:57:40.349Z,65.50
2023-08-06T01:00:09.473Z,65.60
2023-08-06T01:02:37.897Z,65.60
2023-08-06T01:05:05.810Z,65.50
2023-08-06T01:08:33.267Z,65.60
2023-08-06T01:11:12.855Z,65.90
2023-08-06T01:13:49.005Z,65.70
2023-08-06T01:16:22.722Z,65.50
2023-08-06T01:18:54.735Z,65.50
2023-08-06T01:21:23.342Z,65.40
2023-08-06T01:23:53.287Z,66.60
2023-08-06T01:26:44.093Z,66.50
2023-08-06T01:29:36.387Z,66.00
2023-08-06T01:32:05.448Z,66.20
2023-08-06T01:34:36.409Z,66.30
2023-08-06T01:37:06.982Z,66.20
2023-08-06T01:39:37.359Z,66.10
2023-08-06T01:42:05.298Z,66.30
2023-08-06T01:44:33.059Z,66.30
2023-08-06T01:47:00.956Z,66.70
2023-08-06T01:49:28.926Z,66.70
2023-08-06T01:51:56.075Z,66.80
2023-08-06T01:54:24.002Z,66.80
2023-08-06T01:56:52.576Z,66.70
2023-08-06T01:59:21.720Z,66.70
2023-08-06T02:01:51.063Z,66.70
2023-08-06T02:04:20.364Z,66.60
2023-08-06T02:06:50.434Z,66.60
2023-08-06T02:09:19.413Z,66.70
2023-08-06T02:11:48.279Z,66.80
2023-08-06T02:14:17.269Z,66.60
2023-08-06T02:16:57.060Z,66.40
2023-08-06T02:19:26.499Z,66.60
2023-08-06T02:21:54.798Z,66.60
2023-08-06T02:24:23.353Z,66.70
2023-08-06T02:26:52.371Z,66.80
2023-08-06T02:29:20.747Z,66.80
2023-08-06T02:31:48.593Z,66.80
2023-08-06T02:34:18.243Z,66.80
2023-08-06T02:36:47.401Z,66.90
2023-08-06T02:39:18.519Z,67.00
2023-08-06T02:41:54.375Z,67.00
2023-08-06T02:44:22.569Z,66.90
2023-08-06T02:46:51.284Z,66.90
2023-08-06T02:49:18.959Z,66.70
2023-08-06T02:51:47.638Z,66.80
2023-08-06T02:54:15.578Z,66.70
2023-08-06T02:56:49.182Z,66.90
2023-08-06T02:59:25.706Z,66.90
2023-08-06T03:02:03.965Z,66.90
2023-08-06T03:04:57.596Z,66.60
2023-08-06T03:07:30.705Z,66.70
2023-08-06T03:10:06.590Z,66.80
2023-08-06T03:12:34.352Z,67.00
2023-08-06T03:15:03.361Z,67.10
2023-08-06T03:17:32.626Z,67.10
2023-08-06T03:20:02.216Z,67.10
2023-08-06T03:22:30.431Z,67.10
2023-08-06T03:24:57.585Z,67.20
2023-08-06T03:27:26.555Z,67.30
2023-08-06T03:29:54.171Z,67.10
2023-08-06T03:32:23.702Z,66.90
2023-08-06T03:34:51.546Z,66.90
2023-08-06T03:37:18.720Z,66.80
2023-08-06T03:39:45.882Z,66.90
2023-08-06T03:42:15.785Z,67.00
2023-08-06T03:44:44.406Z,67.20
2023-08-06T03:47:13.854Z,67.30
2023-08-06T03:49:42.783Z,67.10
2023-08-06T03:52:10.529Z,67.10
2023-08-06T03:54:37.895Z,66.90
2023-08-06T03:57:05.105Z,67.00
2023-08-06T03:59:33.087Z,67.20
2023-08-06T04:02:00.549Z,67.20
2023-08-06T04:04:27.605Z,67.20
2023-08-06T04:06:55.430Z,67.20
2023-08-06T04:09:23.439Z,67.20
2023-08-06T04:11:50.713Z,67.10
2023-08-06T04:14:17.905Z,67.00
2023-08-06T04:16:44.922Z,66.90
2023-08-06T04:19:12.167Z,67.00
2023-08-06T04:21:40.665Z,67.00
2023-08-06T04:24:07.704Z,67.00
2023-08-06T04:26:35.060Z,67.40
2023-08-06T04:29:02.039Z,67.50
2023-08-06T04:31:30.478Z,67.60
2023-08-06T04:33:58.253Z,67.60
2023-08-06T04:36:27.196Z,67.60
2023-08-06T04:38:54.147Z,67.60
2023-08-06T04:41:21.205Z,67.70
2023-08-06T04:43:48.155Z,67.80
2023-08-06T04:46:15.427Z,67.80
2023-08-06T04:48:42.452Z,67.80
2023-08-06T04:51:10.715Z,67.70
2023-08-06T04:53:38.795Z,67.70
2023-08-06T04:56:05.772Z,67.70
2023-08-06T04:58:32.685Z,67.80
2023-08-06T05:00:59.775Z,67.70
2023-08-06T05:03:26.847Z,67.80
2023-08-06T05:05:53.844Z,67.70
2023-08-06T05:08:20.860Z,67.90
2023-08-06T05:10:47.926Z,67.70
2023-08-06T05:13:15.143Z,67.60
2023-08-06T05:15:44.416Z,67.80
2023-08-06T05:18:11.637Z,67.80
2023-08-06T05:20:39.567Z,67.80
2023-08-06T05:23:08.264Z,67.80
2023-08-06T05:25:39.079Z,67.80
2023-08-06T05:28:06.201Z,67.70
2023-08-06T05:30:33.412Z,67.60
2023-08-06T05:33:00.432Z,67.80
2023-08-06T05:35:27.367Z,68.00
2023-08-06T05:37:54.505Z,67.90
2023-08-06T05:40:22.849Z,67.70
2023-08-06T05:42:50.536Z,67.60
2023-08-06T05:45:18.665Z,67.50
2023-08-06T05:47:45.890Z,67.40
2023-08-06T05:50:12.974Z,67.30
2023-08-06T05:52:40.071Z,67.40
2023-08-06T05:55:07.660Z,67.50
2023-08-06T05:57:34.677Z,67.60
2023-08-06T06:00:02.201Z,67.60
2023-08-06T06:02:39.709Z,67.70
2023-08-06T06:05:07.077Z,67.60
2023-08-06T06:07:34.114Z,67.70
2023-08-06T06:10:01.263Z,67.70
2023-08-06T06:12:28.427Z,67.80
2023-08-06T06:14:55.528Z,67.90
2023-08-06T06:17:23.031Z,67.90
2023-08-06T06:19:51.155Z,68.80
2023-08-06T06:22:18.290Z,67.90
2023-08-06T06:24:45.437Z,67.80
2023-08-06T06:27:12.832Z,67.80
2023-08-06T06:29:40.615Z,67.80
2023-08-06T06:32:08.067Z,68.00
2023-08-06T06:34:35.146Z,68.00
2023-08-06T06:37:02.371Z,68.00
2023-08-06T06:39:30.805Z,67.90
2023-08-06T06:41:58.846Z,67.80
2023-08-06T06:44:33.146Z,67.60
2023-08-06T06:47:00.172Z,67.50
2023-08-06T06:49:27.345Z,67.50
2023-08-06T06:51:54.482Z,67.50
2023-08-06T06:54:21.901Z,67.40
2023-08-06T06:56:48.907Z,67.40
2023-08-06T06:59:16.042Z,67.20
2023-08-06T07:01:43.025Z,67.10
2023-08-06T07:04:10.134Z,67.20
2023-08-06T07:06:37.110Z,67.10
2023-08-06T07:09:07.024Z,67.00
2023-08-06T07:11:34.028Z,67.00
2023-08-06T07:14:01.596Z,67.10
2023-08-06T07:16:28.968Z,67.30
2023-08-06T07:18:57.451Z,67.30
2023-08-06T07:21:26.268Z,67.50
2023-08-06T07:23:53.407Z,67.50
2023-08-06T07:26:22.418Z,67.50
2023-08-06T07:28:50.854Z,67.30
2023-08-06T07:31:17.953Z,67.70
2023-08-06T07:33:45.063Z,67.90
2023-08-06T07:36:13.973Z,67.80
2023-08-06T07:38:41.654Z,67.80
2023-08-06T07:41:09.382Z,67.90
2023-08-06T07:43:37.048Z,68.10
2023-08-06T07:46:04.681Z,68.30
2023-08-06T07:48:32.059Z,68.20
2023-08-06T07:50:59.352Z,68.30
2023-08-06T07:53:29.019Z,68.30
2023-08-06T07:55:56.236Z,68.60
2023-08-06T07:58:26.353Z,68.60
2023-08-06T08:00:53.578Z,68.60
2023-08-06T08:03:21.077Z,68.80
2023-08-06T08:18:01.076Z,69.00
2023-08-06T08:20:34.056Z,68.80
2023-08-06T08:23:01.643Z,68.50
2023-08-06T08:25:31.583Z,68.10
2023-08-06T08:27:59.260Z,68.00
2023-08-06T08:30:26.869Z,68.50
2023-08-06T08:32:54.618Z,68.80
2023-08-06T08:35:21.720Z,68.90
2023-08-06T08:37:49.029Z,68.90
2023-08-06T08:40:16.792Z,68.90
2023-08-06T08:42:44.275Z,68.50
2023-08-06T08:45:15.791Z,68.00
2023-08-06T08:47:47.822Z,68.20
2023-08-06T08:50:20.417Z,68.30
2023-08-06T08:52:52.260Z,68.40
2023-08-06T08:55:22.525Z,68.00
2023-08-06T08:57:49.571Z,68.70
2023-08-06T09:00:16.769Z,67.90
2023-08-06T09:02:49.260Z,67.80
2023-08-06T09:05:20.264Z,68.10
2023-08-06T09:07:50.190Z,68.20
2023-08-06T09:10:19.701Z,67.80
2023-08-06T09:12:49.192Z,67.60
2023-08-06T09:15:16.534Z,67.70
2023-08-06T09:17:46.382Z,67.80
2023-08-06T09:20:15.475Z,67.90
2023-08-06T09:22:44.134Z,67.70
2023-08-06T09:25:17.280Z,67.50
2023-08-06T09:27:47.965Z,67.70
2023-08-06T09:30:32.155Z,67.80
2023-08-06T09:32:59.451Z,68.10
2023-08-06T09:35:29.706Z,68.00
2023-08-06T09:37:56.974Z,68.00
2023-08-06T09:40:32.569Z,68.10
2023-08-06T09:43:05.785Z,68.10
2023-08-06T09:45:38.134Z,67.70
2023-08-06T09:48:09.842Z,67.80
2023-08-06T09:50:41.168Z,67.60
2023-08-06T09:53:09.844Z,67.70
2023-08-06T09:55:37.484Z,67.70
2023-08-06T09:58:05.449Z,67.50
2023-08-06T10:00:36.821Z,67.70
2023-08-06T10:03:09.223Z,67.40
2023-08-06T10:05:37.963Z,67.00
2023-08-06T10:08:06.821Z,66.50
2023-08-06T10:10:35.904Z,66.40
2023-08-06T10:13:08.162Z,65.90
2023-08-06T10:15:37.551Z,65.70
2023-08-06T10:18:06.078Z,66.20
2023-08-06T10:20:36.891Z,65.90
2023-08-06T10:23:07.098Z,65.90
2023-08-06T10:25:35.892Z,65.80
2023-08-06T10:28:14.644Z,65.70
2023-08-06T10:30:49.070Z,65.60
2023-08-06T10:33:17.686Z,65.80
2023-08-06T10:35:52.473Z,65.80
2023-08-06T10:38:33.336Z,65.80
2023-08-06T10:41:00.661Z,65.40
2023-08-06T10:43:36.080Z,65.60
2023-08-06T10:46:08.379Z,64.90
2023-08-06T10:48:43.386Z,65.30
2023-08-06T10:51:12.350Z,65.10
2023-08-06T10:53:50.776Z,65.70
2023-08-06T10:56:26.585Z,65.90
2023-08-06T10:59:00.094Z,66.30
2023-08-06T11:01:31.191Z,67.10
2023-08-06T11:04:03.907Z,67.30
2023-08-06T11:06:32.018Z,67.40
2023-08-06T11:08:59.079Z,67.40
2023-08-06T11:11:26.146Z,67.00
2023-08-06T11:13:57.371Z,67.20
2023-08-06T11:16:26.080Z,67.50
2023-08-06T11:18:58.206Z,67.80
2023-08-06T11:21:30.397Z,68.40
2023-08-06T11:23:57.788Z,67.70
2023-08-06T11:26:25.199Z,67.30
2023-08-06T11:28:52.450Z,67.20
2023-08-06T11:31:23.933Z,67.00
2023-08-06T11:33:56.455Z,67.20
2023-08-06T11:36:41.902Z,67.30
2023-08-06T11:39:10.582Z,67.40
2023-08-06T11:44:59.434Z,67.50
2023-08-06T11:47:26.500Z,67.90
2023-08-06T11:49:53.961Z,68.00
2023-08-06T11:52:24.407Z,68.20
2023-08-06T11:55:07.780Z,68.20
2023-08-06T11:57:39.117Z,68.60
2023-08-06T12:00:08.216Z,68.10
2023-08-06T12:02:45.043Z,68.20
2023-08-06T12:05:18.095Z,68.00
2023-08-06T12:07:48.224Z,67.30
2023-08-06T12:10:17.011Z,66.80
2023-08-06T12:12:44.312Z,66.80
2023-08-06T12:15:12.186Z,65.80
2023-08-06T12:17:39.632Z,65.70
2023-08-06T12:20:08.626Z,65.70
2023-08-06T12:22:36.932Z,65.60
2023-08-06T12:25:07.949Z,65.80
2023-08-06T12:27:39.305Z,66.30
2023-08-06T12:30:07.542Z,66.10
2023-08-06T12:32:35.288Z,65.80
2023-08-06T12:35:02.890Z,65.90
2023-08-06T12:37:30.392Z,66.20
2023-08-06T12:39:58.807Z,66.10
2023-08-06T12:42:26.699Z,66.00
2023-08-06T12:44:54.366Z,65.90
2023-08-06T12:47:21.404Z,66.00
2023-08-06T12:49:48.405Z,66.20
2023-08-06T12:52:16.473Z,66.40
2023-08-06T12:54:43.913Z,66.50
2023-08-06T12:57:12.289Z,66.30
2023-08-06T12:59:41.536Z,65.80
2023-08-06T13:02:11.085Z,65.90
2023-08-06T13:04:38.343Z,66.10
2023-08-06T13:07:07.444Z,66.20
2023-08-06T13:09:34.699Z,66.30
2023-08-06T13:12:06.305Z,66.30
2023-08-06T13:15:00.524Z,66.00
2023-08-06T13:17:29.395Z,65.70
2023-08-06T13:20:04.661Z,65.60
2023-08-06T13:22:52.095Z,65.20
2023-08-06T13:25:21.888Z,65.00
2023-08-06T13:27:49.253Z,64.90
2023-08-06T13:30:18.779Z,64.70
2023-08-06T13:32:45.972Z,64.70
2023-08-06T13:35:20.396Z,64.80
2023-08-06T13:37:50.156Z,65.20
2023-08-06T13:40:18.534Z,65.50
2023-08-06T13:42:45.787Z,65.10
2023-08-06T13:45:12.829Z,64.80
2023-08-06T13:47:39.910Z,64.90
2023-08-06T13:50:07.966Z,65.20
2023-08-06T13:52:37.027Z,65.30
2023-08-06T13:55:05.171Z,65.00
2023-08-06T13:57:32.341Z,65.30
2023-08-06T13:59:59.810Z,65.20
2023-08-06T14:02:27.247Z,65.00
2023-08-06T14:04:54.632Z,64.70
2023-08-06T14:07:21.676Z,64.50
2023-08-06T14:09:48.834Z,64.20
2023-08-06T14:12:15.799Z,64.90
2023-08-06T14:14:42.953Z,64.00
2023-08-06T14:17:09.891Z,64.10
2023-08-06T14:19:37.040Z,63.70
2023-08-06T14:22:04.763Z,63.40
2023-08-06T14:24:31.877Z,63.10
2023-08-06T14:26:58.876Z,63.10
2023-08-06T14:29:25.879Z,62.80
2023-08-06T14:31:53.449Z,62.90
2023-08-06T14:34:20.433Z,63.10
2023-08-06T14:36:47.398Z,63.00
2023-08-06T14:39:15.888Z,63.00
2023-08-06T14:41:43.022Z,63.30
2023-08-06T14:44:10.172Z,63.20
2023-08-06T14:46:37.157Z,63.30
2023-08-06T14:49:06.485Z,63.30
2023-08-06T14:51:34.597Z,63.30
2023-08-06T14:54:03.325Z,63.30
2023-08-06T14:56:30.984Z,63.10
2023-08-06T14:58:58.050Z,63.10
2023-08-06T15:01:25.276Z,63.10
2023-08-06T15:03:52.387Z,63.10
2023-08-06T15:06:19.342Z,63.90
2023-08-06T15:08:48.086Z,63.10
2023-08-06T15:11:15.970Z,63.00
2023-08-06T15:13:43.093Z,63.00
2023-08-06T15:16:10.143Z,63.20
2023-08-06T15:18:38.234Z,63.40
2023-08-06T15:21:05.231Z,63.60
2023-08-06T15:23:33.516Z,63.80
2023-08-06T15:26:00.602Z,63.70
2023-08-06T15:28:27.594Z,63.70
2023-08-06T15:30:56.387Z,63.60
2023-08-06T15:33:23.529Z,63.70
2023-08-06T15:35:50.721Z,63.60
2023-08-06T15:38:17.733Z,63.20
2023-08-06T15:40:46.633Z,63.10
2023-08-06T15:43:14.196Z,63.00
2023-08-06T15:45:41.246Z,63.10
2023-08-06T15:48:10.272Z,63.00
2023-08-06T15:50:41.272Z,62.80
2023-08-06T15:53:10.954Z,63.00
2023-08-06T15:55:41.750Z,63.00
2023-08-06T15:58:08.824Z,63.10
2023-08-06T16:00:36.356Z,63.10
2023-08-06T16:03:04.482Z,63.20
2023-08-06T16:05:32.411Z,63.40
2023-08-06T16:08:00.159Z,63.70
2023-08-06T16:10:27.851Z,63.50
2023-08-06T16:12:54.818Z,63.80
2023-08-06T16:15:22.863Z,64.10
2023-08-06T16:17:54.813Z,64.30
2023-08-06T16:20:22.427Z,64.40
2023-08-06T16:22:54.357Z,64.50
2023-08-06T16:25:31.514Z,64.30
2023-08-06T16:28:00.539Z,64.30
2023-08-06T16:30:35.114Z,64.60
2023-08-06T16:33:07.776Z,64.70
2023-08-06T16:35:38.508Z,64.70
2023-08-06T16:38:05.739Z,65.00
2023-08-06T16:40:32.781Z,65.00
2023-08-06T16:42:59.836Z,65.00
2023-08-06T16:45:26.835Z,65.00
2023-08-06T16:47:53.983Z,65.40
2023-08-06T16:50:22.650Z,65.20
2023-08-06T16:52:50.315Z,65.60
2023-08-06T16:55:29.209Z,65.60
2023-08-06T16:58:01.153Z,65.80
2023-08-06T17:00:29.514Z,65.90
2023-08-06T17:02:56.985Z,65.90
2023-08-06T17:05:24.469Z,65.70
2023-08-06T17:07:53.334Z,65.50
2023-08-06T17:10:21.371Z,65.70
2023-08-06T17:12:49.783Z,66.10
2023-08-06T17:15:19.228Z,66.00
2023-08-06T17:17:46.326Z,66.00
2023-08-06T17:20:13.402Z,66.10
2023-08-06T17:22:40.684Z,66.30
2023-08-06T17:25:08.356Z,66.10
2023-08-06T17:27:35.283Z,66.00
2023-08-06T17:30:04.596Z,65.90
2023-08-06T17:32:31.542Z,66.10
2023-08-06T17:34:58.828Z,65.80
2023-08-06T17:37:25.729Z,65.50
2023-08-06T17:39:52.726Z,65.60
2023-08-06T17:42:19.725Z,65.60
2023-08-06T17:44:48.203Z,65.70
2023-08-06T17:47:26.892Z,65.80
2023-08-06T17:50:01.924Z,65.90
2023-08-06T17:52:29.764Z,66.10
2023-08-06T17:54:56.831Z,66.10
2023-08-06T17:57:24.012Z,66.10
2023-08-06T17:59:51.374Z,66.10
2023-08-06T18:02:18.569Z,66.30
2023-08-06T18:04:45.752Z,66.50
2023-08-06T18:07:12.798Z,66.70
2023-08-06T18:09:39.995Z,66.70
2023-08-06T18:12:09.831Z,66.50
2023-08-06T18:14:40.128Z,66.40
2023-08-06T18:17:07.482Z,66.40
2023-08-06T18:19:34.562Z,66.30
2023-08-06T18:22:03.799Z,66.40
2023-08-06T18:24:32.306Z,66.70
2023-08-06T18:26:59.326Z,66.80
2023-08-06T18:29:26.429Z,66.80
2023-08-06T18:31:53.361Z,66.90
2023-08-06T18:34:20.265Z,66.80
2023-08-06T18:36:47.333Z,66.80
2023-08-06T18:39:14.388Z,66.80
2023-08-06T18:41:41.415Z,66.70
2023-08-06T18:44:08.425Z,66.70
2023-08-06T18:46:35.580Z,66.80
2023-08-06T18:49:02.757Z,66.80
2023-08-06T18:51:29.861Z,66.80
2023-08-06T18:53:56.762Z,66.90
2023-08-06T18:56:23.810Z,67.10
2023-08-06T18:58:50.719Z,67.00
2023-08-06T19:01:17.796Z,67.10
2023-08-06T19:03:45.068Z,67.20
2023-08-06T19:06:13.917Z,67.20
2023-08-06T19:08:40.913Z,67.20
2023-08-06T19:11:39.953Z,67.30
2023-08-06T19:14:10.290Z,67.30
2023-08-06T19:16:47.381Z,67.30
2023-08-06T19:19:18.460Z,67.30
2023-08-06T19:21:50.095Z,67.20
2023-08-06T19:24:33.374Z,67.20
2023-08-06T19:27:06.141Z,67.10
2023-08-06T19:29:42.773Z,67.10
2023-08-06T19:32:15.043Z,67.10
2023-08-06T19:35:05.706Z,67.10
2023-08-06T19:37:35.835Z,67.20
2023-08-06T19:40:17.610Z,67.20
2023-08-06T19:42:45.050Z,67.20
2023-08-06T19:45:12.955Z,67.10
2023-08-06T19:50:40.867Z,67.20
2023-08-06T19:53:08.433Z,67.20
2023-08-06T19:55:42.536Z,67.30
2023-08-06T19:58:10.761Z,67.50
2023-08-06T20:00:41.374Z,67.40
2023-08-06T20:03:11.623Z,67.40
2023-08-06T20:05:39.919Z,67.40
2023-08-06T20:08:12.234Z,67.40
2023-08-06T20:15:13.035Z,67.60
2023-08-06T20:17:40.640Z,67.30
2023-08-06T20:20:10.231Z,67.10
2023-08-06T20:26:46.329Z,67.00
2023-08-06T20:29:17.642Z,66.60
2023-08-06T20:31:47.170Z,66.70
2023-08-06T20:34:15.102Z,66.60
2023-08-06T20:37:36.386Z,66.80
2023-08-06T20:40:05.554Z,67.00
2023-08-06T20:42:40.623Z,67.10
2023-08-06T20:53:55.331Z,67.90
2023-08-06T20:59:31.429Z,67.40
2023-08-06T21:06:30.750Z,67.20
2023-08-06T21:08:59.451Z,66.90
2023-08-06T21:11:29.112Z,67.10
2023-08-06T21:18:37.621Z,67.30
2023-08-06T21:25:33.689Z,67.40
2023-08-06T21:28:04.820Z,67.30
2023-08-06T21:31:05.222Z,67.30
2023-08-06T21:33:38.210Z,67.40
2023-08-06T21:39:30.751Z,67.00
2023-08-06T21:41:57.905Z,66.90
2023-08-06T21:51:39.275Z,67.00
2023-08-06T21:54:17.677Z,67.30
2023-08-06T21:56:48.402Z,67.40
2023-08-06T21:59:17.916Z,67.80
2023-08-06T22:01:46.844Z,68.00
2023-08-06T22:04:21.629Z,69.00
2023-08-06T22:06:51.811Z,68.10
2023-08-06T22:09:26.145Z,68.30
2023-08-06T22:11:56.636Z,68.50
2023-08-06T22:14:29.851Z,68.60
2023-08-06T22:17:04.417Z,68.80
2023-08-06T22:19:41.560Z,69.00
2023-08-06T22:22:09.195Z,69.20
2023-08-06T22:24:39.260Z,69.80
2023-08-06T22:27:06.883Z,69.10
2023-08-06T22:29:40.485Z,69.10
2023-08-06T22:32:08.436Z,69.30
2023-08-06T22:34:36.181Z,69.40
2023-08-06T22:37:07.045Z,69.30
2023-08-06T22:39:42.257Z,69.30
2023-08-06T22:42:09.662Z,69.40
2023-08-06T22:44:41.580Z,69.40
2023-08-06T22:47:09.754Z,69.40
2023-08-06T22:49:37.989Z,69.40
2023-08-06T22:52:06.261Z,69.30
2023-08-06T22:54:33.791Z,69.40
2023-08-06T22:57:01.726Z,69.40
2023-08-06T22:59:29.624Z,69.30
2023-08-06T23:01:57.479Z,69.30
2023-08-06T23:04:26.002Z,69.20
2023-08-06T23:06:53.864Z,69.30
2023-08-06T23:09:21.503Z,69.30
2023-08-06T23:11:51.287Z,69.30
2023-08-06T23:14:19.161Z,69.20
2023-08-06T23:16:54.297Z,69.30
2023-08-06T23:19:30.323Z,69.50
2023-08-06T23:21:57.899Z,69.40
2023-08-06T23:25:00.538Z,69.50
2023-08-06T23:27:30.855Z,69.80
2023-08-06T23:29:59.456Z,69.70
2023-08-06T23:32:30.729Z,69.80
2023-08-06T23:34:59.732Z,69.70
2023-08-06T23:37:27.413Z,69.80
2023-08-06T23:39:57.176Z,70.00
2023-08-06T23:42:28.188Z,70.20
2023-08-06T23:45:02.466Z,70.30
2023-08-06T23:47:29.977Z,70.50
2023-08-06T23:49:59.894Z,70.50
2023-08-06T23:52:27.802Z,70.50
2023-08-06T23:54:55.643Z,70.60
2023-08-06T23:57:23.552Z,70.80
2023-08-06T23:59:51.900Z,70.90
